Time;durP1;ratioP1;P1;durP2;ratioP2;P2;SDS_P1;SDS_P2;PMS_P1;PMS_P2;Temp;Humidity;BMP_temperature;BMP_pressure;BME280_temperature;BME280_humidity;BME280_pressure;Samples;Min_cycle;Max_cycle;Signal;HPM_P1;HPM_P2
2022/03/23 00:00:37;;;;;;;61.05;41.17;;;;;;;;;;5005617;28;20038;-94
2022/03/23 00:03:06;;;;;;;52.50;36.78;;;;;;;;;;5008549;28;20089;-95
2022/03/23 00:05:40;;;;;;;62.40;40.28;;;;;;;;;;5010575;28;20113;-93
2022/03/23 00:08:06;;;;;;;61.28;41.67;;;;;;;;;;5010395;28;20042;-92
2022/03/23 00:10:32;;;;;;;59.42;40.10;;;;;;;;;;5007829;28;20073;-94
2022/03/23 00:13:01;;;;;;;60.33;39.72;;;;;;;;;;4998332;28;20074;-94
2022/03/23 00:15:32;;;;;;;59.60;38.78;;;;;;;;;;5001349;28;20046;-90
2022/03/23 00:17:58;;;;;;;57.42;39.00;;;;;;;;;;5004509;28;20062;-94
2022/03/23 00:20:24;;;;;;;58.30;37.65;;;;;;;;;;5005232;28;20059;-93
2022/03/23 00:22:51;;;;;;;62.28;39.08;;;;;;;;;;5009260;28;20073;-92
2022/03/23 00:25:20;;;;;;;59.67;38.25;;;;;;;;;;5006753;28;20106;-94
2022/03/23 00:27:51;;;;;;;53.50;35.92;;;;;;;;;;4993606;28;20042;-91
2022/03/23 00:30:18;;;;;;;56.03;36.42;;;;;;;;;;5008925;28;20042;-93
2022/03/23 00:32:46;;;;;;;49.50;34.22;;;;;;;;;;5009381;28;20042;-94
2022/03/23 00:35:17;;;;;;;50.50;35.03;;;;;;;;;;5004706;28;20492;-93
2022/03/23 00:37:46;;;;;;;52.60;34.42;;;;;;;;;;5005041;28;20097;-92
2022/03/23 00:40:21;;;;;;;49.55;32.67;;;;;;;;;;5005709;28;20034;-94
2022/03/23 00:42:47;;;;;;;48.33;34.33;;;;;;;;;;5005501;28;20054;-94
2022/03/23 00:45:20;;;;;;;48.15;34.95;;;;;;;;;;5005279;28;20137;-93
2022/03/23 00:47:48;;;;;;;47.58;33.28;;;;;;;;;;5004926;28;20105;-93
2022/03/23 00:50:14;;;;;;;48.80;33.90;;;;;;;;;;5003890;28;20050;-94
2022/03/23 00:52:40;;;;;;;47.05;33.92;;;;;;;;;;5002057;28;20101;-93
2022/03/23 00:55:10;;;;;;;53.45;36.55;;;;;;;;;;5008160;28;20130;-94
2022/03/23 00:57:38;;;;;;;57.75;37.45;;;;;;;;;;5005580;28;20038;-93
2022/03/23 01:00:12;;;;;;;51.42;35.08;;;;;;;;;;5009391;28;20042;-94
2022/03/23 01:02:44;;;;;;;50.05;33.28;;;;;;;;;;5005957;28;20038;-93
2022/03/23 01:05:11;;;;;;;50.70;34.28;;;;;;;;;;5003932;28;20046;-93
2022/03/23 01:07:43;;;;;;;53.90;35.28;;;;;;;;;;5005230;28;20403;-92
2022/03/23 01:10:11;;;;;;;50.85;35.83;;;;;;;;;;5007415;28;20461;-93
2022/03/23 01:12:48;;;;;;;55.65;36.63;;;;;;;;;;5009630;28;20400;-93
2022/03/23 01:15:20;;;;;;;59.17;38.83;;;;;;;;;;5009216;28;20453;-94
2022/03/23 01:17:51;;;;;;;60.70;38.53;;;;;;;;;;5007245;28;20099;-93
2022/03/23 01:20:21;;;;;;;56.78;38.72;;;;;;;;;;5007830;28;20496;-94
2022/03/23 01:22:47;;;;;;;62.05;40.60;;;;;;;;;;5004785;28;20049;-94
2022/03/23 01:25:21;;;;;;;58.50;39.10;;;;;;;;;;5005126;28;20050;-93
2022/03/23 01:27:48;;;;;;;60.33;39.15;;;;;;;;;;5007025;28;20085;-92
2022/03/23 01:30:14;;;;;;;63.03;41.15;;;;;;;;;;5008157;28;20145;-94
2022/03/23 01:32:46;;;;;;;57.00;38.88;;;;;;;;;;5005965;28;20046;-94
2022/03/23 01:35:15;;;;;;;55.75;35.75;;;;;;;;;;5005638;28;20058;-93
2022/03/23 01:37:42;;;;;;;52.88;35.25;;;;;;;;;;5006442;28;20042;-93
2022/03/23 01:40:09;;;;;;;64.53;38.22;;;;;;;;;;5009871;28;20078;-93
2022/03/23 01:42:44;;;;;;;66.25;39.92;;;;;;;;;;4994343;28;20055;-93
2022/03/23 01:45:19;;;;;;;61.92;40.83;;;;;;;;;;5011032;28;20120;-93
2022/03/23 01:47:53;;;;;;;61.70;40.72;;;;;;;;;;5008718;28;20042;-93
2022/03/23 01:50:19;;;;;;;57.38;37.58;;;;;;;;;;5009009;28;20050;-93
2022/03/23 01:52:50;;;;;;;54.75;38.65;;;;;;;;;;5009932;28;20046;-94
2022/03/23 01:55:27;;;;;;;52.25;34.20;;;;;;;;;;5008412;28;20042;-92
2022/03/23 01:57:53;;;;;;;54.40;35.15;;;;;;;;;;5011040;28;20050;-94
2022/03/23 02:00:19;;;;;;;55.45;37.08;;;;;;;;;;5011376;28;20056;-92
2022/03/23 02:02:51;;;;;;;61.92;39.35;;;;;;;;;;5017176;28;20053;-92
2022/03/23 02:05:17;;;;;;;55.33;37.95;;;;;;;;;;5017124;28;20046;-92
2022/03/23 02:07:44;;;;;;;55.80;37.67;;;;;;;;;;5015744;28;20046;-93
2022/03/23 02:10:21;;;;;;;60.88;38.63;;;;;;;;;;5017382;28;20050;-92
2022/03/23 02:12:47;;;;;;;57.95;39.55;;;;;;;;;;5017095;28;20042;-92
2022/03/23 02:15:23;;;;;;;59.22;39.58;;;;;;;;;;5017281;28;20053;-94
2022/03/23 02:17:53;;;;;;;58.70;39.97;;;;;;;;;;5013424;28;20054;-94
2022/03/23 02:20:22;;;;;;;58.08;39.25;;;;;;;;;;5009935;28;20101;-93
2022/03/23 02:22:48;;;;;;;55.90;37.55;;;;;;;;;;5009672;28;20038;-93
2022/03/23 02:25:18;;;;;;;64.00;39.58;;;;;;;;;;5010465;28;20050;-93
2022/03/23 02:27:44;;;;;;;56.92;37.60;;;;;;;;;;5008234;28;20077;-94
2022/03/23 02:30:13;;;;;;;54.33;36.10;;;;;;;;;;5008769;28;20241;-96
2022/03/23 02:32:41;;;;;;;60.70;37.72;;;;;;;;;;5008213;28;20050;-94
2022/03/23 02:35:15;;;;;;;61.63;40.13;;;;;;;;;;5012346;28;20042;-94
2022/03/23 02:37:43;;;;;;;53.50;35.35;;;;;;;;;;5015489;28;20046;-94
2022/03/23 02:40:13;;;;;;;55.60;37.90;;;;;;;;;;5013353;28;20038;-93
2022/03/23 02:42:39;;;;;;;60.03;37.60;;;;;;;;;;5012438;28;20199;-93
2022/03/23 02:45:12;;;;;;;58.80;39.10;;;;;;;;;;5009453;28;20050;-93
2022/03/23 02:47:43;;;;;;;63.85;40.20;;;;;;;;;;5007175;28;20050;-91
2022/03/23 02:50:13;;;;;;;53.05;36.47;;;;;;;;;;5013792;28;20141;-92
2022/03/23 03:01:52;;;;;;;48.63;34.03;;;;;;;;;;5015428;28;20042;-94
2022/03/23 03:04:02;;;;;;;56.22;36.40;;;;;;;;;;5009398;28;20137;-94
2022/03/23 03:06:28;;;;;;;53.58;38.15;;;;;;;;;;5007982;28;20034;-93
2022/03/23 03:08:54;;;;;;;55.22;37.97;;;;;;;;;;5011794;28;20441;-93
2022/03/23 03:11:29;;;;;;;63.95;42.00;;;;;;;;;;5011334;28;20046;-93
2022/03/23 03:14:01;;;;;;;62.03;42.03;;;;;;;;;;5010113;28;20073;-93
2022/03/23 03:16:27;;;;;;;62.97;40.75;;;;;;;;;;5009920;28;20040;-94
2022/03/23 03:18:53;;;;;;;60.53;41.05;;;;;;;;;;5002916;28;20069;-93
2022/03/23 03:21:20;;;;;;;59.40;41.38;;;;;;;;;;5003534;28;20061;-94
2022/03/23 03:23:54;;;;;;;68.78;43.00;;;;;;;;;;5011050;28;20064;-94
2022/03/23 03:26:20;;;;;;;68.53;41.95;;;;;;;;;;5010452;28;20096;-92
2022/03/23 03:28:50;;;;;;;61.20;41.67;;;;;;;;;;5013340;28;20042;-93
2022/03/23 03:31:19;;;;;;;69.32;44.67;;;;;;;;;;5009008;28;20046;-93
2022/03/23 03:33:54;;;;;;;72.18;46.35;;;;;;;;;;5009920;28;20065;-93
2022/03/23 03:36:21;;;;;;;64.45;44.03;;;;;;;;;;5007667;28;20082;-92
2022/03/23 03:38:49;;;;;;;69.20;45.25;;;;;;;;;;5012506;28;20035;-93
2022/03/23 03:41:20;;;;;;;63.60;42.50;;;;;;;;;;5007580;28;20122;-93
2022/03/23 03:43:46;;;;;;;67.65;43.05;;;;;;;;;;4993522;28;20069;-94
2022/03/23 03:46:15;;;;;;;66.72;44.22;;;;;;;;;;5007505;28;20069;-94
2022/03/23 03:48:44;;;;;;;69.97;46.50;;;;;;;;;;5006863;28;20049;-93
2022/03/23 03:51:10;;;;;;;78.97;48.15;;;;;;;;;;5006345;28;20061;-92
2022/03/23 03:53:36;;;;;;;73.93;47.03;;;;;;;;;;5004227;28;20034;-94
2022/03/23 03:56:09;;;;;;;72.03;46.10;;;;;;;;;;5009573;28;20062;-94
2022/03/23 03:58:38;;;;;;;63.45;43.65;;;;;;;;;;5008205;28;20457;-94
2022/03/23 04:01:09;;;;;;;67.22;43.83;;;;;;;;;;5007812;28;20034;-93
2022/03/23 04:03:40;;;;;;;63.92;42.65;;;;;;;;;;5006587;28;20050;-95
2022/03/23 04:06:07;;;;;;;63.85;44.58;;;;;;;;;;5002708;28;20065;-93
2022/03/23 04:08:48;;;;;;;68.82;44.78;;;;;;;;;;5003113;28;20326;-94
2022/03/23 04:11:15;;;;;;;60.03;40.38;;;;;;;;;;5006176;28;20054;-95
2022/03/23 04:13:41;;;;;;;55.38;37.78;;;;;;;;;;4984755;28;20046;-92
2022/03/23 04:16:07;;;;;;;55.55;39.35;;;;;;;;;;5003451;28;20133;-92
2022/03/23 04:18:36;;;;;;;56.97;39.15;;;;;;;;;;5003312;28;20042;-93
2022/03/23 04:21:05;;;;;;;65.55;45.58;;;;;;;;;;5000397;28;20042;-94
2022/03/23 04:23:33;;;;;;;75.72;48.10;;;;;;;;;;4998827;28;20045;-94
2022/03/23 04:26:00;;;;;;;78.78;48.42;;;;;;;;;;5004687;28;20042;-92
2022/03/23 04:28:26;;;;;;;73.20;46.38;;;;;;;;;;5005496;28;20044;-92
2022/03/23 04:30:54;;;;;;;78.85;49.20;;;;;;;;;;5003079;28;20053;-93
2022/03/23 04:33:21;;;;;;;76.30;46.50;;;;;;;;;;5005648;28;20046;-94
2022/03/23 04:35:50;;;;;;;77.13;48.50;;;;;;;;;;5005839;28;20396;-93
2022/03/23 04:38:16;;;;;;;77.65;49.80;;;;;;;;;;5004948;28;20073;-94
2022/03/23 04:40:42;;;;;;;75.70;48.83;;;;;;;;;;5006695;28;20053;-94
2022/03/23 04:43:08;;;;;;;66.10;43.83;;;;;;;;;;5014899;28;20126;-95
2022/03/23 04:45:34;;;;;;;64.95;42.95;;;;;;;;;;4994570;28;20069;-94
2022/03/23 04:48:01;;;;;;;59.58;38.65;;;;;;;;;;5010421;28;20052;-95
2022/03/23 04:50:28;;;;;;;66.75;44.10;;;;;;;;;;4994969;28;20042;-92
2022/03/23 04:52:59;;;;;;;65.03;42.13;;;;;;;;;;5012563;28;20080;-91
2022/03/23 04:55:25;;;;;;;71.18;45.47;;;;;;;;;;5014303;28;20052;-95
2022/03/23 04:57:52;;;;;;;54.75;37.42;;;;;;;;;;5012265;28;20034;-93
2022/03/23 05:00:20;;;;;;;57.47;39.25;;;;;;;;;;4993453;28;20042;-94
2022/03/23 05:02:47;;;;;;;55.33;39.65;;;;;;;;;;4991425;28;20038;-93
2022/03/23 05:05:14;;;;;;;60.20;41.55;;;;;;;;;;5004957;28;20046;-94
2022/03/23 05:07:43;;;;;;;71.57;46.70;;;;;;;;;;5004742;28;20486;-95
2022/03/23 05:10:10;;;;;;;74.03;45.03;;;;;;;;;;5005639;28;20100;-93
2022/03/23 05:12:37;;;;;;;56.47;38.30;;;;;;;;;;5004402;28;20044;-95
2022/03/23 05:15:09;;;;;;;60.25;40.83;;;;;;;;;;5022213;28;20058;-94
2022/03/23 05:17:39;;;;;;;70.88;43.40;;;;;;;;;;4987651;28;20121;-92
2022/03/23 05:20:05;;;;;;;57.65;38.40;;;;;;;;;;4985811;28;20468;-94
2022/03/23 05:22:32;;;;;;;81.57;46.65;;;;;;;;;;5002415;28;20171;-94
2022/03/23 05:25:01;;;;;;;70.28;42.92;;;;;;;;;;4987108;28;20109;-94
2022/03/23 05:27:47;;;;;;;68.03;43.30;;;;;;;;;;5011391;28;20061;-92
2022/03/23 05:30:23;;;;;;;;;;;;;;;;;;5008251;28;20038;-92
2022/03/23 05:33:40;;;;;;;51.05;35.00;;;;;;;;;;4996167;28;19921;-94
2022/03/23 05:38:59;;;;;;;69.57;45.17;;;;;;;;;;5004635;28;20045;-92
2022/03/23 05:41:28;;;;;;;54.85;37.15;;;;;;;;;;4983407;28;20069;-94
2022/03/23 05:44:15;;;;;;;57.72;38.35;;;;;;;;;;5001660;28;20042;-93
2022/03/23 05:46:57;;;;;;;58.97;37.33;;;;;;;;;;5006898;28;20066;-94
2022/03/23 05:49:25;;;;;;;57.20;38.55;;;;;;;;;;5001442;28;20070;-94
2022/03/23 05:51:54;;;;;;;68.93;41.40;;;;;;;;;;4996553;28;20079;-94
2022/03/23 05:57:34;;;;;;;55.70;38.10;;;;;;;;;;4998818;28;20050;-93
2022/03/23 06:00:02;;;;;;;54.65;38.03;;;;;;;;;;4985988;28;20136;-93
2022/03/23 06:02:31;;;;;;;72.00;40.15;;;;;;;;;;4999234;28;20038;-92
2022/03/23 06:05:00;;;;;;;77.43;39.50;;;;;;;;;;4999767;28;20073;-92
2022/03/23 06:07:28;;;;;;;61.72;36.08;;;;;;;;;;5003723;28;20078;-93
2022/03/23 06:09:57;;;;;;;62.67;37.15;;;;;;;;;;5002782;28;20050;-94
2022/03/23 06:12:25;;;;;;;73.18;40.08;;;;;;;;;;5004999;28;20073;-94
2022/03/23 06:14:54;;;;;;;89.55;42.30;;;;;;;;;;4998929;28;20062;-91
2022/03/23 06:17:20;;;;;;;76.45;44.70;;;;;;;;;;4986350;28;20054;-92
2022/03/23 06:19:49;;;;;;;71.97;46.28;;;;;;;;;;4997935;28;20069;-94
2022/03/23 06:22:18;;;;;;;72.55;46.20;;;;;;;;;;4984249;28;20081;-94
2022/03/23 06:24:46;;;;;;;88.22;49.25;;;;;;;;;;4980966;28;20053;-94
2022/03/23 06:29:50;;;;;;;77.93;48.47;;;;;;;;;;5004948;28;20054;-95
2022/03/23 06:32:18;;;;;;;69.10;46.42;;;;;;;;;;4979029;28;20047;-93
2022/03/23 06:34:50;;;;;;;73.65;46.97;;;;;;;;;;4989526;28;20039;-94
2022/03/23 06:37:19;;;;;;;68.40;44.83;;;;;;;;;;4976984;28;20026;-94
2022/03/23 06:40:12;;;;;;;61.20;44.97;;;;;;;;;;4967821;28;20086;-93
2022/03/23 06:49:07;;;;;;;74.85;49.55;;;;;;;;;;4916209;29;20052;-95
2022/03/23 06:51:43;;;;;;;70.63;46.53;;;;;;;;;;4933929;29;20044;-96
2022/03/23 06:54:12;;;;;;;70.03;46.28;;;;;;;;;;4931394;29;20043;-93
2022/03/23 06:56:51;;;;;;;64.80;44.45;;;;;;;;;;4938828;29;20040;-95
2022/03/23 06:59:25;;;;;;;74.60;48.97;;;;;;;;;;4928220;29;20084;-94
2022/03/23 07:01:55;;;;;;;77.22;48.85;;;;;;;;;;4918294;29;20068;-93
2022/03/23 07:04:24;;;;;;;73.82;47.72;;;;;;;;;;4930668;29;20056;-96
2022/03/23 07:07:06;;;;;;;68.55;46.72;;;;;;;;;;4934897;29;20146;-93
2022/03/23 07:09:38;;;;;;;67.80;45.67;;;;;;;;;;4933838;29;20472;-94
2022/03/23 07:19:49;;;;;;;;;;;;;;;;;;;;;
2022/03/23 07:22:21;;;;;;;65.85;45.30;;;;;;;;;;4825180;29;20056;-95
2022/03/23 07:30:20;;;;;;;55.33;40.50;;;;;;;;;;4977593;28;19921;-94
2022/03/23 07:32:50;;;;;;;61.40;40.13;;;;;;;;;;4970582;28;20073;-94
2022/03/23 07:35:24;;;;;;;55.67;39.35;;;;;;;;;;4984314;28;20047;-94
2022/03/23 07:37:56;;;;;;;57.43;41.00;;;;;;;;;;4965787;28;20053;-96
2022/03/23 07:40:51;;;;;;;;;;;;;;;;;;;;;
2022/03/23 07:46:32;;;;;;;51.90;35.00;;;;;;;;;;4969853;28;20062;-92
2022/03/23 07:49:01;;;;;;;52.47;35.05;;;;;;;;;;4995426;28;20101;-95
2022/03/23 07:51:39;;;;;;;50.03;32.47;;;;;;;;;;4996166;28;20035;-93
2022/03/23 07:54:17;;;;;;;43.83;32.00;;;;;;;;;;4977817;28;20043;-95
2022/03/23 07:56:43;;;;;;;46.35;32.78;;;;;;;;;;4986941;28;20073;-93
2022/03/23 07:59:11;;;;;;;43.85;31.17;;;;;;;;;;4981766;28;20042;-93
2022/03/23 08:01:49;;;;;;;42.80;31.88;;;;;;;;;;4968620;28;20038;-96
2022/03/23 08:04:26;;;;;;;50.17;32.85;;;;;;;;;;4974388;28;20042;-92
2022/03/23 08:06:56;;;;;;;41.33;30.27;;;;;;;;;;4989292;28;20077;-93
2022/03/23 08:09:34;;;;;;;40.03;29.35;;;;;;;;;;4987302;28;20046;-95
2022/03/23 08:12:03;;;;;;;41.30;29.60;;;;;;;;;;4976003;28;20045;-94
2022/03/23 08:14:32;;;;;;;38.03;28.25;;;;;;;;;;4965284;28;20082;-95
2022/03/23 08:17:01;;;;;;;40.38;28.80;;;;;;;;;;4980944;28;20042;-94
2022/03/23 08:19:50;;;;;;;;;;;;;;;;;;;;;
2022/03/23 08:22:23;;;;;;;41.17;27.75;;;;;;;;;;4997227;28;20567;-93
2022/03/23 08:25:12;;;;;;;37.38;28.15;;;;;;;;;;4986998;28;20042;-94
2022/03/23 08:33:37;;;;;;;34.45;26.27;;;;;;;;;;4989844;28;20065;-93
2022/03/23 08:36:10;;;;;;;36.28;25.58;;;;;;;;;;4966170;28;20137;-94
2022/03/23 08:38:36;;;;;;;33.28;22.70;;;;;;;;;;4964759;28;20039;-93
2022/03/23 08:41:13;;;;;;;32.38;24.50;;;;;;;;;;4985980;28;20077;-94
2022/03/23 08:43:41;;;;;;;30.92;23.15;;;;;;;;;;4984637;28;20087;-94
2022/03/23 08:46:13;;;;;;;29.75;22.45;;;;;;;;;;4981927;28;20070;-94
2022/03/23 08:48:51;;;;;;;30.88;22.25;;;;;;;;;;4968047;28;20047;-94
2022/03/23 08:51:23;;;;;;;29.85;21.70;;;;;;;;;;4995947;28;20047;-95
2022/03/23 08:53:52;;;;;;;24.85;20.52;;;;;;;;;;4985414;28;20046;-93
2022/03/23 08:56:19;;;;;;;32.30;21.52;;;;;;;;;;4988252;28;20043;-94
2022/03/23 08:58:48;;;;;;;29.90;22.30;;;;;;;;;;4990101;28;20057;-93
2022/03/23 09:01:20;;;;;;;28.27;21.40;;;;;;;;;;4983974;28;20097;-93
2022/03/23 09:03:53;;;;;;;27.35;22.00;;;;;;;;;;4985366;28;20074;-93
2022/03/23 09:06:22;;;;;;;26.58;20.75;;;;;;;;;;4979651;28;20038;-95
2022/03/23 09:08:48;;;;;;;30.23;21.30;;;;;;;;;;4966537;28;20117;-95
2022/03/23 09:11:15;;;;;;;29.70;21.73;;;;;;;;;;4959619;28;20073;-93
2022/03/23 09:13:44;;;;;;;28.55;21.33;;;;;;;;;;4964913;28;20043;-94
2022/03/23 09:16:10;;;;;;;29.85;22.15;;;;;;;;;;4968363;28;20517;-94
2022/03/23 09:18:42;;;;;;;26.80;22.40;;;;;;;;;;4977295;28;20166;-96
2022/03/23 09:21:08;;;;;;;30.60;22.65;;;;;;;;;;4982241;28;20062;-93
2022/03/23 09:23:44;;;;;;;29.00;22.48;;;;;;;;;;4968839;28;20070;-94
2022/03/23 09:26:11;;;;;;;25.20;20.95;;;;;;;;;;4970805;28;20493;-95
2022/03/23 09:28:37;;;;;;;25.55;20.25;;;;;;;;;;4979347;28;20059;-94
2022/03/23 09:31:04;;;;;;;25.20;20.98;;;;;;;;;;4960728;28;20042;-94
2022/03/23 09:33:32;;;;;;;26.13;21.27;;;;;;;;;;4948602;29;20062;-95
2022/03/23 09:35:59;;;;;;;22.95;18.88;;;;;;;;;;4971808;28;20047;-96
2022/03/23 09:38:26;;;;;;;26.83;18.98;;;;;;;;;;4962841;28;20101;-94
2022/03/23 09:40:53;;;;;;;23.38;18.30;;;;;;;;;;4956577;28;20106;-96
2022/03/23 09:43:23;;;;;;;23.27;18.42;;;;;;;;;;4963221;28;20039;-94
2022/03/23 09:45:51;;;;;;;22.42;17.75;;;;;;;;;;4949899;28;20450;-94
2022/03/23 09:48:20;;;;;;;24.55;18.83;;;;;;;;;;4956599;28;20101;-94
2022/03/23 09:50:50;;;;;;;23.40;18.83;;;;;;;;;;4956781;28;20375;-94
2022/03/23 09:53:19;;;;;;;22.35;18.30;;;;;;;;;;4974478;28;20051;-94
2022/03/23 09:55:46;;;;;;;21.48;17.75;;;;;;;;;;4967515;28;20127;-93
2022/03/23 09:58:12;;;;;;;22.75;18.15;;;;;;;;;;4971257;28;20043;-93
2022/03/23 10:00:42;;;;;;;22.45;17.13;;;;;;;;;;4953557;28;20043;-93
2022/03/23 10:03:20;;;;;;;19.40;15.82;;;;;;;;;;4956999;28;20089;-94
2022/03/23 10:06:01;;;;;;;22.60;18.35;;;;;;;;;;4959632;28;20529;-93
2022/03/23 10:08:45;;;;;;;25.50;18.25;;;;;;;;;;4977123;28;20043;-92
2022/03/23 10:11:30;;;;;;;23.55;18.75;;;;;;;;;;4962091;28;20038;-93
2022/03/23 10:14:31;;;;;;;25.63;20.03;;;;;;;;;;4958519;28;20485;-95
2022/03/23 10:17:16;;;;;;;22.23;18.35;;;;;;;;;;4957246;29;20082;-93
2022/03/23 10:19:49;;;;;;;20.05;16.98;;;;;;;;;;4956325;29;20043;-94
2022/03/23 10:22:20;;;;;;;24.38;16.92;;;;;;;;;;4944296;29;20047;-93
2022/03/23 10:24:51;;;;;;;19.60;16.58;;;;;;;;;;4947239;29;20082;-94
2022/03/23 10:27:23;;;;;;;23.25;17.90;;;;;;;;;;4959243;29;20051;-95
2022/03/23 10:29:56;;;;;;;21.73;16.73;;;;;;;;;;4949498;29;20059;-94
2022/03/23 10:32:22;;;;;;;22.40;17.08;;;;;;;;;;4970414;29;20054;-94
2022/03/23 10:34:55;;;;;;;20.63;16.35;;;;;;;;;;4966668;29;20071;-94
2022/03/23 10:37:28;;;;;;;17.67;14.50;;;;;;;;;;4946396;29;20047;-94
2022/03/23 10:40:01;;;;;;;21.40;16.50;;;;;;;;;;4953143;29;20078;-94
2022/03/23 10:42:33;;;;;;;21.08;15.98;;;;;;;;;;4952330;29;20023;-93
2022/03/23 10:45:10;;;;;;;19.20;16.30;;;;;;;;;;5092621;23;20090;-90
2022/03/23 10:47:44;;;;;;;20.80;14.52;;;;;;;;;;5016104;28;20046;-91
2022/03/23 10:50:26;;;;;;;18.95;15.77;;;;;;;;;;5002686;28;20048;-92
2022/03/23 10:52:57;;;;;;;22.52;15.75;;;;;;;;;;5020166;28;20189;-93
2022/03/23 10:55:32;;;;;;;20.45;13.35;;;;;;;;;;5027571;28;20065;-92
2022/03/23 10:58:04;;;;;;;20.02;14.48;;;;;;;;;;5013280;28;20392;-94
2022/03/23 11:00:38;;;;;;;22.05;14.75;;;;;;;;;;5011558;28;20068;-92
2022/03/23 11:03:16;;;;;;;22.08;14.82;;;;;;;;;;5015550;28;20128;-92
2022/03/23 11:05:49;;;;;;;18.67;13.47;;;;;;;;;;5020593;28;20057;-92
2022/03/23 11:08:23;;;;;;;19.55;15.02;;;;;;;;;;5034808;28;20401;-93
2022/03/23 11:16:36;;;;;;;20.30;13.50;;;;;;;;;;5020663;28;20490;-93
2022/03/23 11:19:13;;;;;;;21.60;12.32;;;;;;;;;;5025537;28;20121;-93
2022/03/23 11:21:59;;;;;;;22.13;13.93;;;;;;;;;;5007195;28;20494;-93
2022/03/23 11:24:31;;;;;;;22.70;12.27;;;;;;;;;;5005281;28;20128;-93
2022/03/23 11:27:01;;;;;;;19.42;8.77;;;;;;;;;;5008660;28;20483;-93
2022/03/23 11:29:30;;;;;;;18.33;10.63;;;;;;;;;;4985568;28;20052;-94
2022/03/23 11:31:58;;;;;;;18.35;9.48;;;;;;;;;;5005631;28;20120;-92
2022/03/23 11:34:24;;;;;;;25.55;11.32;;;;;;;;;;5002939;28;20471;-93
2022/03/23 11:36:55;;;;;;;19.85;11.00;;;;;;;;;;5024539;28;20045;-93
2022/03/23 11:39:24;;;;;;;20.70;11.70;;;;;;;;;;5047983;28;20068;-92
2022/03/23 11:41:53;;;;;;;18.50;10.82;;;;;;;;;;5016052;28;20076;-92
2022/03/23 11:44:26;;;;;;;20.30;9.73;;;;;;;;;;5033764;28;20041;-94
2022/03/23 11:46:56;;;;;;;24.50;10.95;;;;;;;;;;5033419;28;20208;-93
2022/03/23 11:49:33;;;;;;;23.08;10.27;;;;;;;;;;5016852;28;20042;-92
2022/03/23 11:52:15;;;;;;;22.98;10.20;;;;;;;;;;5053390;28;20049;-92
2022/03/23 11:57:54;;;;;;;18.50;11.55;;;;;;;;;;5024824;28;20350;-93
2022/03/23 12:00:21;;;;;;;27.23;12.88;;;;;;;;;;5009608;28;20466;-94
2022/03/23 12:02:52;;;;;;;25.48;13.07;;;;;;;;;;5008450;28;20053;-94
2022/03/23 12:05:25;;;;;;;22.17;11.75;;;;;;;;;;5024238;28;20048;-92
2022/03/23 12:07:59;;;;;;;26.08;11.50;;;;;;;;;;5005727;28;20037;-93
2022/03/23 12:10:32;;;;;;;25.95;10.85;;;;;;;;;;5031176;28;20052;-94
2022/03/23 12:12:58;;;;;;;24.40;9.45;;;;;;;;;;5003330;28;20065;-93
2022/03/23 12:15:30;;;;;;;26.60;10.43;;;;;;;;;;4993518;28;20100;-92
2022/03/23 12:17:59;;;;;;;25.67;10.05;;;;;;;;;;4991599;28;20034;-93
2022/03/23 12:20:37;;;;;;;24.92;9.30;;;;;;;;;;5021555;28;20400;-94
2022/03/23 12:23:05;;;;;;;20.27;10.25;;;;;;;;;;5011726;28;20120;-91
2022/03/23 12:25:35;;;;;;;22.77;10.15;;;;;;;;;;5028928;28;20037;-92
2022/03/23 12:28:20;;;;;;;22.10;10.65;;;;;;;;;;5029916;28;20092;-93
2022/03/23 12:30:55;;;;;;;18.13;10.73;;;;;;;;;;5013575;28;20045;-93
2022/03/23 12:33:29;;;;;;;26.98;11.02;;;;;;;;;;5015983;28;20275;-93
2022/03/23 12:36:04;;;;;;;24.38;12.15;;;;;;;;;;5027560;28;20040;-92
2022/03/23 12:38:33;;;;;;;23.25;9.27;;;;;;;;;;5012550;28;20038;-95
2022/03/23 12:41:04;;;;;;;25.58;9.55;;;;;;;;;;5006058;28;20041;-92
2022/03/23 12:43:42;;;;;;;19.63;9.63;;;;;;;;;;5026463;28;20140;-95
2022/03/23 12:46:18;;;;;;;22.95;9.70;;;;;;;;;;5012892;28;20061;-94
2022/03/23 12:57:53;;;;;;;19.35;7.03;;;;;;;;;;5026477;28;20069;-93
2022/03/23 13:00:27;;;;;;;17.40;7.05;;;;;;;;;;5028142;28;20065;-92
2022/03/23 13:03:13;;;;;;;18.33;7.50;;;;;;;;;;5028292;28;20041;-93
2022/03/23 13:05:57;;;;;;;23.33;7.15;;;;;;;;;;5028910;28;20041;-93
2022/03/23 13:08:33;;;;;;;31.15;8.32;;;;;;;;;;5012362;28;20468;-93
2022/03/23 13:11:01;;;;;;;20.40;8.88;;;;;;;;;;5014401;28;20114;-93
2022/03/23 13:13:29;;;;;;;22.00;9.20;;;;;;;;;;5014005;28;20076;-94
2022/03/23 13:15:55;;;;;;;33.22;10.77;;;;;;;;;;5026494;28;20060;-92
2022/03/23 13:18:29;;;;;;;29.05;10.43;;;;;;;;;;5032558;28;20041;-93
2022/03/23 13:21:00;;;;;;;21.80;8.20;;;;;;;;;;5012150;28;20048;-93
2022/03/23 13:23:29;;;;;;;22.52;8.73;;;;;;;;;;5008767;28;20045;-93
2022/03/23 13:26:05;;;;;;;20.40;8.48;;;;;;;;;;5011210;28;20056;-95
2022/03/23 13:28:43;;;;;;;20.48;8.10;;;;;;;;;;5012969;28;20037;-92
2022/03/23 13:31:11;;;;;;;29.75;7.97;;;;;;;;;;5027731;28;20037;-93
2022/03/23 13:33:46;;;;;;;18.80;6.32;;;;;;;;;;5013498;28;20045;-93
2022/03/23 13:36:16;;;;;;;23.13;6.57;;;;;;;;;;5011429;28;20076;-94
2022/03/23 13:38:43;;;;;;;20.85;6.30;;;;;;;;;;5032334;28;20388;-92
2022/03/23 13:43:58;;;;;;;22.65;6.18;;;;;;;;;;5032993;28;20159;-93
2022/03/23 13:46:28;;;;;;;19.05;6.13;;;;;;;;;;5010087;28;20054;-92
2022/03/23 13:49:02;;;;;;;21.48;6.40;;;;;;;;;;5010682;28;20102;-92
2022/03/23 13:51:44;;;;;;;18.33;6.32;;;;;;;;;;5003651;28;20045;-92
2022/03/23 13:54:15;;;;;;;18.73;6.90;;;;;;;;;;5018847;28;20065;-93
2022/03/23 13:56:44;;;;;;;21.30;7.07;;;;;;;;;;5021395;28;20045;-94
2022/03/23 13:59:12;;;;;;;32.63;7.40;;;;;;;;;;5002935;28;20500;-94
2022/03/23 14:01:45;;;;;;;17.13;6.47;;;;;;;;;;5007928;28;20118;-92
2022/03/23 14:04:14;;;;;;;19.77;6.40;;;;;;;;;;5008579;28;20042;-93
2022/03/23 14:06:45;;;;;;;19.23;7.18;;;;;;;;;;5011221;28;20044;-93
2022/03/23 14:09:14;;;;;;;20.02;7.43;;;;;;;;;;5001836;28;20254;-93
2022/03/23 14:11:47;;;;;;;18.90;7.60;;;;;;;;;;5007307;28;20069;-92
2022/03/23 14:14:24;;;;;;;20.95;6.28;;;;;;;;;;5026184;28;20045;-95
2022/03/23 14:17:08;;;;;;;21.35;7.85;;;;;;;;;;4998144;28;20053;-93
2022/03/23 14:19:40;;;;;;;20.83;7.10;;;;;;;;;;4998372;28;20078;-94
2022/03/23 14:22:08;;;;;;;27.45;8.43;;;;;;;;;;4989908;28;20072;-93
2022/03/23 14:24:37;;;;;;;22.67;7.75;;;;;;;;;;4987116;28;20038;-93
2022/03/23 14:27:23;;;;;;;19.92;6.18;;;;;;;;;;5008148;28;20053;-93
2022/03/23 14:32:34;;;;;;;16.77;6.70;;;;;;;;;;5000258;28;20054;-92
2022/03/23 14:35:00;;;;;;;20.92;5.78;;;;;;;;;;4997760;28;20046;-94
2022/03/23 14:37:36;;;;;;;18.05;6.45;;;;;;;;;;5003134;28;20069;-92
2022/03/23 14:40:21;;;;;;;20.27;7.88;;;;;;;;;;4990320;28;20038;-92
2022/03/23 14:42:48;;;;;;;21.55;7.88;;;;;;;;;;4989354;28;20073;-92
2022/03/23 14:45:35;;;;;;;27.70;8.00;;;;;;;;;;4990567;28;20078;-93
2022/03/23 14:48:16;;;;;;;25.13;8.48;;;;;;;;;;5010153;28;20068;-92
2022/03/23 14:50:49;;;;;;;21.45;10.63;;;;;;;;;;4989933;28;20470;-92
2022/03/23 14:53:25;;;;;;;17.75;9.38;;;;;;;;;;5007216;28;20101;-94
2022/03/23 14:55:53;;;;;;;21.83;8.40;;;;;;;;;;4993341;28;20038;-94
2022/03/23 14:58:27;;;;;;;18.67;8.20;;;;;;;;;;5008329;28;20060;-92
2022/03/23 15:01:02;;;;;;;17.95;9.45;;;;;;;;;;4991207;28;20125;-93
2022/03/23 15:03:32;;;;;;;24.80;9.35;;;;;;;;;;5009763;28;20414;-93
2022/03/23 15:14:14;;;;;;;27.70;10.52;;;;;;;;;;5031314;28;20105;-93
2022/03/23 15:16:45;;;;;;;23.38;9.23;;;;;;;;;;5033029;28;20042;-93
2022/03/23 15:19:16;;;;;;;25.60;9.98;;;;;;;;;;5033511;28;20079;-93
2022/03/23 15:21:46;;;;;;;19.95;9.13;;;;;;;;;;5035722;28;20041;-92
2022/03/23 15:24:19;;;;;;;18.85;9.10;;;;;;;;;;5031118;28;20038;-94
2022/03/23 15:26:50;;;;;;;22.58;8.70;;;;;;;;;;5013841;28;20056;-92
2022/03/23 15:29:16;;;;;;;19.85;9.05;;;;;;;;;;5013369;28;20105;-94
2022/03/23 15:31:43;;;;;;;21.48;9.32;;;;;;;;;;5020553;28;20063;-93
2022/03/23 15:34:09;;;;;;;21.17;8.32;;;;;;;;;;5008403;28;20038;-93
2022/03/23 15:36:41;;;;;;;18.85;8.48;;;;;;;;;;4989787;28;20050;-92
2022/03/23 15:39:12;;;;;;;24.30;7.65;;;;;;;;;;4991198;28;20038;-93
2022/03/23 15:41:38;;;;;;;15.63;6.78;;;;;;;;;;5004464;28;20350;-94
2022/03/23 15:44:11;;;;;;;20.83;7.78;;;;;;;;;;4988880;28;20034;-94
2022/03/23 15:46:38;;;;;;;19.55;6.47;;;;;;;;;;4989677;28;20080;-92
2022/03/23 15:49:15;;;;;;;26.65;7.40;;;;;;;;;;5003552;28;20046;-94
2022/03/23 15:51:45;;;;;;;22.67;9.35;;;;;;;;;;5002710;28;20061;-93
2022/03/23 15:54:14;;;;;;;19.55;8.50;;;;;;;;;;5007817;28;20048;-92
2022/03/23 15:56:42;;;;;;;28.13;11.18;;;;;;;;;;5019913;28;20040;-92
2022/03/23 15:59:08;;;;;;;22.13;11.15;;;;;;;;;;5005602;28;20040;-92
2022/03/23 16:04:33;;;;;;;21.27;11.32;;;;;;;;;;5002243;28;20045;-94
2022/03/23 16:06:59;;;;;;;26.85;12.82;;;;;;;;;;5000061;28;20142;-93